Time;durP1;ratioP1;P1;durP2;ratioP2;P2;SDS_P1;SDS_P2;PMS_P1;PMS_P2;Temp;Humidity;BMP_temperature;BMP_pressure;BME280_temperature;BME280_humidity;BME280_pressure;Samples;Min_cycle;Max_cycle;Signal;HPM_P1;HPM_P2
2023/03/10 00:00:43;;;;;;;0.65;0.57;;;7.50;85.70;;;;;;5039892;28;20056;-75
2023/03/10 00:03:09;;;;;;;0.40;0.28;;;7.50;85.60;;;;;;5018062;28;20128;-74
2023/03/10 00:05:37;;;;;;;0.47;0.30;;;7.50;85.40;;;;;;5027536;28;20152;-75
2023/03/10 00:08:03;;;;;;;0.88;0.43;;;7.50;85.00;;;;;;5006134;28;20105;-74
2023/03/10 00:10:29;;;;;;;0.40;0.30;;;7.60;84.80;;;;;;4999781;28;20026;-75
2023/03/10 00:12:55;;;;;;;0.35;0.20;;;7.60;84.50;;;;;;5017289;28;20037;-75
2023/03/10 00:15:22;;;;;;;0.30;0.25;;;7.70;84.20;;;;;;5016911;28;20022;-74
2023/03/10 00:17:54;;;;;;;0.32;0.20;;;7.70;83.70;;;;;;5017071;28;20098;-75
2023/03/10 00:20:20;;;;;;;0.85;0.30;;;7.70;83.40;;;;;;4999954;28;20029;-75
2023/03/10 00:22:46;;;;;;;0.75;0.30;;;7.70;83.80;;;;;;5017387;28;20034;-74
2023/03/10 00:25:12;;;;;;;0.93;0.25;;;7.60;83.00;;;;;;5016855;28;20097;-76
2023/03/10 00:27:38;;;;;;;0.63;0.50;;;7.60;82.90;;;;;;5017306;28;20110;-74
2023/03/10 00:30:05;;;;;;;0.73;0.25;;;7.50;82.80;;;;;;5000515;28;20037;-75
2023/03/10 00:32:30;;;;;;;0.60;0.35;;;7.50;82.70;;;;;;5018036;28;20041;-74
2023/03/10 00:34:56;;;;;;;1.20;0.30;;;7.50;82.60;;;;;;5029200;28;20077;-74
2023/03/10 00:37:22;;;;;;;0.38;0.28;;;7.40;82.70;;;;;;5037525;28;20030;-74
2023/03/10 00:39:51;;;;;;;1.00;0.30;;;7.40;82.60;;;;;;5018763;28;20026;-75
2023/03/10 00:42:17;;;;;;;0.82;0.30;;;7.40;82.50;;;;;;5019156;28;20538;-73
2023/03/10 00:44:43;;;;;;;0.45;0.20;;;7.40;82.50;;;;;;5035989;28;20029;-74
2023/03/10 00:47:09;;;;;;;0.68;0.47;;;7.40;82.40;;;;;;5035994;28;20100;-75
2023/03/10 00:49:34;;;;;;;0.13;0.13;;;7.40;82.40;;;;;;5036050;28;20022;-74
2023/03/10 00:52:00;;;;;;;0.20;0.10;;;7.40;82.20;;;;;;5035519;28;20467;-75
2023/03/10 00:54:26;;;;;;;0.20;0.10;;;7.40;81.90;;;;;;5035723;28;20025;-75
2023/03/10 00:56:52;;;;;;;0.63;0.22;;;7.40;81.70;;;;;;5019551;28;20072;-74
2023/03/10 00:59:17;;;;;;;0.10;0.10;;;7.40;81.70;;;;;;5015856;28;20022;-73
2023/03/10 01:01:43;;;;;;;0.80;0.20;;;7.40;81.80;;;;;;4998493;28;20463;-74
2023/03/10 01:04:13;;;;;;;1.02;0.20;;;7.30;81.80;;;;;;5019782;28;20056;-76
2023/03/10 01:06:39;;;;;;;0.73;0.20;;;7.30;81.80;;;;;;5024525;28;20026;-74
2023/03/10 01:09:05;;;;;;;0.68;0.47;;;7.30;81.70;;;;;;5016039;28;20030;-74
2023/03/10 01:11:32;;;;;;;0.68;0.43;;;7.30;81.70;;;;;;5015653;28;20041;-76
2023/03/10 01:14:01;;;;;;;1.33;0.50;;;7.20;81.60;;;;;;4997993;28;20026;-74
2023/03/10 01:16:28;;;;;;;0.85;0.20;;;7.20;81.60;;;;;;5017127;28;20087;-74
2023/03/10 01:18:54;;;;;;;0.25;0.20;;;7.20;81.60;;;;;;5023341;28;20034;-75
2023/03/10 01:21:23;;;;;;;0.52;0.22;;;7.10;81.60;;;;;;5017847;28;20022;-75
2023/03/10 01:23:49;;;;;;;0.28;0.28;;;7.10;81.70;;;;;;5034729;28;20474;-75
2023/03/10 01:26:16;;;;;;;0.82;0.30;;;7.00;81.90;;;;;;5032422;28;20053;-74
2023/03/10 01:28:42;;;;;;;1.60;0.57;;;7.00;82.00;;;;;;5015254;28;20083;-74
2023/03/10 01:31:07;;;;;;;0.20;0.15;;;7.00;82.10;;;;;;5014947;28;20026;-75
2023/03/10 01:33:34;;;;;;;0.52;0.32;;;6.90;82.40;;;;;;5015187;28;20099;-75
2023/03/10 01:36:01;;;;;;;0.38;0.25;;;6.90;82.50;;;;;;4997970;28;20045;-74
2023/03/10 01:38:27;;;;;;;0.20;0.20;;;6.90;82.60;;;;;;5013733;28;20029;-76
2023/03/10 01:40:53;;;;;;;1.40;0.20;;;6.90;82.60;;;;;;5035571;28;20030;-74
2023/03/10 01:43:18;;;;;;;0.10;0.10;;;6.90;82.60;;;;;;5035070;28;20048;-74
2023/03/10 01:45:44;;;;;;;0.35;0.20;;;6.80;82.50;;;;;;5035288;28;20021;-74
2023/03/10 01:48:11;;;;;;;0.22;0.20;;;6.80;82.60;;;;;;5016474;28;20057;-74
2023/03/10 01:50:38;;;;;;;0.10;0.10;;;6.80;82.60;;;;;;5034656;28;20025;-73
2023/03/10 01:53:04;;;;;;;0.05;0.05;;;6.80;82.60;;;;;;5034765;28;20047;-75
2023/03/10 01:55:33;;;;;;;0.20;0.20;;;6.80;82.80;;;;;;5034633;28;20136;-74
2023/03/10 01:58:00;;;;;;;0.20;0.20;;;6.80;82.80;;;;;;5033985;28;20053;-74
2023/03/10 02:00:28;;;;;;;0.22;0.20;;;6.80;82.90;;;;;;5034662;28;20026;-73
2023/03/10 02:03:20;;;;;;;0.47;0.40;;;6.70;82.90;;;;;;5034091;28;20021;-75
2023/03/10 02:06:10;;;;;;;0.20;0.20;;;6.70;82.80;;;;;;5023207;28;20041;-75
2023/03/10 02:08:46;;;;;;;0.30;0.10;;;6.70;82.80;;;;;;5015020;28;20053;-74
2023/03/10 02:11:13;;;;;;;0.30;0.30;;;6.70;83.00;;;;;;5014972;28;20026;-75
2023/03/10 02:13:39;;;;;;;0.17;0.10;;;6.70;83.10;;;;;;5015207;28;20491;-75
2023/03/10 02:16:05;;;;;;;0.25;0.25;;;6.60;83.10;;;;;;5015987;28;20029;-74
2023/03/10 02:18:31;;;;;;;0.75;0.30;;;6.70;83.20;;;;;;5025172;28;20397;-74
2023/03/10 02:21:27;;;;;;;0.30;0.20;;;6.70;83.30;;;;;;5039124;28;20113;-74
2023/03/10 02:24:05;;;;;;;0.22;0.22;;;6.70;83.20;;;;;;5038863;28;20399;-74
2023/03/10 02:26:39;;;;;;;0.20;0.20;;;6.70;83.90;;;;;;5038538;28;20030;-74
2023/03/10 02:29:30;;;;;;;0.65;0.22;;;6.70;83.10;;;;;;5031357;28;20376;-76
2023/03/10 02:31:59;;;;;;;0.20;0.20;;;6.70;83.20;;;;;;5018472;28;20049;-76
2023/03/10 02:34:26;;;;;;;0.38;0.10;;;6.60;83.30;;;;;;5025045;28;20483;-75
2023/03/10 02:36:55;;;;;;;0.77;0.47;;;6.60;83.30;;;;;;5030329;28;20052;-75
2023/03/10 02:39:21;;;;;;;0.32;0.30;;;6.60;83.40;;;;;;5037155;28;20037;-75
2023/03/10 02:41:47;;;;;;;0.38;0.30;;;6.50;83.50;;;;;;5029483;28;20030;-73
2023/03/10 02:44:19;;;;;;;0.25;0.10;;;6.50;83.70;;;;;;5018337;28;20041;-78
2023/03/10 02:46:48;;;;;;;0.40;0.35;;;6.50;83.80;;;;;;5001529;28;20436;-74
2023/03/10 02:49:15;;;;;;;0.20;0.20;;;6.40;84.00;;;;;;5018624;28;20045;-75
2023/03/10 02:51:44;;;;;;;0.20;0.20;;;6.50;84.30;;;;;;5017960;28;20029;-74
2023/03/10 02:54:10;;;;;;;0.50;0.40;;;6.40;84.20;;;;;;5017885;28;20101;-75
2023/03/10 02:56:36;;;;;;;1.55;0.22;;;6.40;84.10;;;;;;5000584;28;20483;-75
2023/03/10 02:59:06;;;;;;;0.10;0.10;;;6.40;84.00;;;;;;5001036;28;20029;-74
2023/03/10 03:01:32;;;;;;;0.57;0.20;;;6.40;84.10;;;;;;5002751;28;20033;-73
2023/03/10 03:03:59;;;;;;;1.15;0.30;;;6.50;84.20;;;;;;5024079;28;20052;-74
2023/03/10 03:06:26;;;;;;;0.10;0.10;;;6.50;84.10;;;;;;5041707;28;20052;-75
2023/03/10 03:08:52;;;;;;;0.47;0.13;;;6.50;83.90;;;;;;5041091;28;20029;-74
2023/03/10 03:11:18;;;;;;;0.10;0.10;;;6.50;83.70;;;;;;5005615;28;20033;-74
2023/03/10 03:13:43;;;;;;;0.47;0.20;;;6.50;83.70;;;;;;5021058;28;20045;-75
2023/03/10 03:16:10;;;;;;;0.20;0.20;;;6.60;83.40;;;;;;5003160;28;20022;-75
2023/03/10 03:18:36;;;;;;;0.30;0.30;;;6.60;83.30;;;;;;5018165;28;20032;-74
2023/03/10 03:21:11;;;;;;;1.02;0.20;;;6.60;83.00;;;;;;5012015;28;20029;-74
2023/03/10 03:23:37;;;;;;;0.10;0.10;;;6.60;82.70;;;;;;5037610;28;20132;-74
2023/03/10 03:26:03;;;;;;;0.93;0.20;;;6.70;82.60;;;;;;5036956;28;20132;-74
2023/03/10 03:28:29;;;;;;;0.10;0.10;;;6.70;82.40;;;;;;5036195;28;20021;-74
2023/03/10 03:30:55;;;;;;;0.35;0.20;;;6.70;82.20;;;;;;5018278;28;20036;-74
2023/03/10 03:33:20;;;;;;;0.93;0.20;;;6.70;82.00;;;;;;5032502;28;20029;-74
2023/03/10 03:35:46;;;;;;;0.10;0.10;;;6.70;81.80;;;;;;5026392;28;20041;-74
2023/03/10 03:38:15;;;;;;;0.63;0.10;;;6.80;81.70;;;;;;5037571;28;20026;-75
2023/03/10 03:40:41;;;;;;;0.10;0.10;;;6.80;81.50;;;;;;5036156;28;20033;-72
2023/03/10 03:43:06;;;;;;;0.10;0.10;;;6.80;81.30;;;;;;5017488;28;20036;-74
2023/03/10 03:45:32;;;;;;;0.52;0.10;;;6.80;81.20;;;;;;5016901;28;20029;-74
2023/03/10 03:47:59;;;;;;;0.35;0.10;;;6.90;80.90;;;;;;4999173;28;20038;-74
2023/03/10 03:50:25;;;;;;;0.20;0.20;;;6.80;80.60;;;;;;5016735;28;20026;-74
2023/03/10 03:52:50;;;;;;;1.10;0.00;;;6.90;80.50;;;;;;5032125;28;20032;-74
2023/03/10 03:55:17;;;;;;;0.20;0.20;;;6.90;80.50;;;;;;5036288;28;20017;-75
2023/03/10 03:57:44;;;;;;;0.45;0.20;;;6.80;80.70;;;;;;5036584;28;20045;-74
2023/03/10 04:00:22;;;;;;;0.93;0.20;;;6.90;80.60;;;;;;5036458;28;20029;-75
2023/03/10 04:02:48;;;;;;;0.30;0.13;;;6.90;80.50;;;;;;5024523;28;20054;-74
2023/03/10 04:05:14;;;;;;;0.28;0.10;;;6.90;80.50;;;;;;5024162;28;20026;-74
2023/03/10 04:07:40;;;;;;;1.77;0.60;;;6.90;80.50;;;;;;5033177;28;20051;-75
2023/03/10 04:10:08;;;;;;;5.07;0.90;;;6.90;80.00;;;;;;5018534;28;20025;-75
2023/03/10 04:12:34;;;;;;;0.90;0.50;;;7.00;80.30;;;;;;5029086;28;20018;-74
2023/03/10 04:15:00;;;;;;;2.60;0.40;;;6.90;80.40;;;;;;5027059;28;20021;-74
2023/03/10 04:17:26;;;;;;;0.60;0.50;;;6.90;80.90;;;;;;5038183;28;20047;-74
2023/03/10 04:19:52;;;;;;;1.80;0.50;;;6.90;81.20;;;;;;5037536;28;20040;-74
2023/03/10 04:22:17;;;;;;;0.45;0.22;;;6.90;81.40;;;;;;5034511;28;20037;-75
2023/03/10 04:24:43;;;;;;;0.55;0.20;;;6.90;81.50;;;;;;5016437;28;20096;-75
2023/03/10 04:27:10;;;;;;;0.40;0.30;;;7.00;81.60;;;;;;5016552;28;20475;-74
2023/03/10 04:29:36;;;;;;;0.93;0.30;;;7.00;81.50;;;;;;5016891;28;20051;-74
2023/03/10 04:32:03;;;;;;;0.20;0.20;;;7.10;81.60;;;;;;5016092;28;20026;-74
2023/03/10 04:34:29;;;;;;;0.85;0.30;;;7.10;81.40;;;;;;5032130;28;20537;-73
2023/03/10 04:36:55;;;;;;;0.47;0.47;;;7.20;81.20;;;;;;5016830;28;20038;-75
2023/03/10 04:39:20;;;;;;;0.98;0.47;;;7.30;81.00;;;;;;5015862;28;20077;-74
2023/03/10 04:41:46;;;;;;;0.60;0.45;;;7.40;80.70;;;;;;5016050;28;20112;-75
2023/03/10 04:44:12;;;;;;;0.73;0.30;;;7.50;80.20;;;;;;5028098;28;20108;-75
2023/03/10 04:46:37;;;;;;;0.40;0.30;;;7.60;80.00;;;;;;5035423;28;20390;-75
2023/03/10 04:49:03;;;;;;;0.75;0.57;;;7.70;79.70;;;;;;5035148;28;20520;-75
2023/03/10 04:51:28;;;;;;;0.17;0.10;;;7.80;79.50;;;;;;5023918;28;20030;-75
2023/03/10 04:53:55;;;;;;;0.47;0.20;;;7.80;79.30;;;;;;5016187;28;20096;-75
2023/03/10 04:56:22;;;;;;;0.20;0.10;;;7.90;79.20;;;;;;4998868;28;20085;-75
2023/03/10 04:58:48;;;;;;;0.63;0.20;;;7.90;79.20;;;;;;5016188;28;20479;-75
2023/03/10 05:01:14;;;;;;;0.32;0.20;;;8.00;79.00;;;;;;5021200;28;20032;-74
2023/03/10 05:03:40;;;;;;;1.60;0.40;;;8.10;78.90;;;;;;5000686;28;20132;-75
2023/03/10 05:06:16;;;;;;;0.68;0.32;;;8.20;78.80;;;;;;5023791;28;20104;-75
2023/03/10 05:08:41;;;;;;;0.73;0.22;;;8.20;78.80;;;;;;5015547;28;20030;-74
2023/03/10 05:11:07;;;;;;;0.93;0.38;;;8.30;79.00;;;;;;5017526;28;20498;-74
2023/03/10 05:13:33;;;;;;;0.98;0.35;;;8.40;79.50;;;;;;5034455;28;20036;-75
2023/03/10 05:15:59;;;;;;;3.08;0.60;;;8.60;80.10;;;;;;5034374;28;20025;-74
2023/03/10 05:18:25;;;;;;;2.08;0.75;;;8.70;80.50;;;;;;5033594;28;20056;-74
2023/03/10 05:20:55;;;;;;;3.33;0.70;;;8.80;80.90;;;;;;5034585;28;20036;-74
2023/03/10 05:23:22;;;;;;;4.43;0.80;;;8.90;81.40;;;;;;5023814;28;20037;-73
2023/03/10 05:25:48;;;;;;;0.50;0.43;;;9.00;81.50;;;;;;5015227;28;20033;-75
2023/03/10 05:28:13;;;;;;;3.35;0.60;;;9.00;81.50;;;;;;5017743;28;20052;-75
2023/03/10 05:30:39;;;;;;;2.75;0.70;;;9.00;81.70;;;;;;5034880;28;20030;-75
2023/03/10 05:33:05;;;;;;;1.25;0.65;;;9.10;82.10;;;;;;5017647;28;20035;-74
2023/03/10 05:35:31;;;;;;;2.83;1.00;;;9.10;82.30;;;;;;5028968;28;20104;-75
2023/03/10 05:37:57;;;;;;;1.40;0.50;;;9.10;82.70;;;;;;5019758;28;20121;-74
2023/03/10 05:40:23;;;;;;;1.75;0.77;;;9.10;83.10;;;;;;5016304;28;20038;-75
2023/03/10 05:42:49;;;;;;;1.45;0.50;;;9.20;83.70;;;;;;5002964;28;20045;-75
2023/03/10 05:45:15;;;;;;;1.58;0.60;;;9.20;83.80;;;;;;5023682;28;20037;-75
2023/03/10 05:47:42;;;;;;;0.60;0.60;;;9.20;84.20;;;;;;5015083;28;20458;-75
2023/03/10 05:50:09;;;;;;;0.77;0.40;;;9.10;84.40;;;;;;4996775;28;20045;-74
2023/03/10 05:52:40;;;;;;;1.38;0.77;;;9.20;84.70;;;;;;5025046;28;20029;-74
2023/03/10 05:55:13;;;;;;;1.05;0.65;;;9.20;85.00;;;;;;5026672;28;20037;-75
2023/03/10 05:57:38;;;;;;;1.08;0.68;;;9.20;85.30;;;;;;5008232;28;20112;-75
2023/03/10 06:00:08;;;;;;;1.63;0.47;;;9.20;85.60;;;;;;5021294;28;20113;-75
2023/03/10 06:02:35;;;;;;;2.13;0.60;;;9.20;85.70;;;;;;5018693;28;20052;-74
2023/03/10 06:05:01;;;;;;;2.35;1.05;;;9.20;85.90;;;;;;5013253;28;20060;-75
2023/03/10 06:07:27;;;;;;;1.88;0.60;;;9.20;86.00;;;;;;5015242;28;20034;-74
2023/03/10 06:09:53;;;;;;;1.27;0.43;;;9.20;86.20;;;;;;5023721;28;20034;-75
2023/03/10 06:12:20;;;;;;;0.73;0.60;;;9.20;86.30;;;;;;5017011;28;20033;-74
2023/03/10 06:14:45;;;;;;;0.47;0.45;;;9.20;86.50;;;;;;5015382;28;20022;-74
2023/03/10 06:17:11;;;;;;;1.08;0.50;;;9.20;86.70;;;;;;5018950;28;20018;-75
2023/03/10 06:19:37;;;;;;;0.88;0.40;;;9.20;86.90;;;;;;5025794;28;20026;-75
2023/03/10 06:22:03;;;;;;;2.17;0.50;;;9.20;87.00;;;;;;5015865;28;20434;-74
2023/03/10 06:24:29;;;;;;;1.65;0.40;;;9.20;87.20;;;;;;5029087;28;20067;-75
2023/03/10 06:26:54;;;;;;;0.47;0.40;;;9.20;87.40;;;;;;5025694;28;20033;-75
2023/03/10 06:29:20;;;;;;;0.60;0.40;;;9.20;87.60;;;;;;5015216;28;20072;-74
2023/03/10 06:31:46;;;;;;;1.20;0.60;;;9.20;87.90;;;;;;5014527;28;20041;-75
2023/03/10 06:34:11;;;;;;;1.67;0.60;;;9.20;88.20;;;;;;4998471;28;20029;-73
2023/03/10 06:36:39;;;;;;;2.28;0.52;;;9.20;88.60;;;;;;5020628;28;20026;-76
2023/03/10 06:39:05;;;;;;;0.40;0.30;;;9.20;88.90;;;;;;5014737;28;20101;-75
2023/03/10 06:41:31;;;;;;;0.50;0.45;;;9.20;89.10;;;;;;5014159;28;20026;-74
2023/03/10 06:43:57;;;;;;;1.60;0.35;;;9.20;89.30;;;;;;5019957;28;20026;-73
2023/03/10 06:46:24;;;;;;;0.38;0.20;;;9.30;89.60;;;;;;5016771;28;20040;-74
2023/03/10 06:48:50;;;;;;;1.00;0.40;;;9.30;89.80;;;;;;5028722;28;20440;-74
2023/03/10 06:51:18;;;;;;;0.32;0.30;;;9.30;90.00;;;;;;5019677;28;20466;-74
2023/03/10 06:53:44;;;;;;;0.32;0.30;;;9.30;90.10;;;;;;5021183;28;20026;-74
2023/03/10 06:56:11;;;;;;;0.85;0.20;;;9.30;90.20;;;;;;5016295;28;20105;-75
2023/03/10 06:58:38;;;;;;;0.40;0.20;;;9.40;90.30;;;;;;5020203;28;20073;-75
2023/03/10 07:01:06;;;;;;;0.60;0.40;;;9.40;90.40;;;;;;5018407;28;20033;-75
2023/03/10 07:03:32;;;;;;;2.63;0.40;;;9.50;90.40;;;;;;5025323;28;20021;-75
2023/03/10 07:05:58;;;;;;;0.93;0.57;;;9.60;90.40;;;;;;5029903;28;20073;-75
2023/03/10 07:08:28;;;;;;;0.63;0.47;;;9.70;90.20;;;;;;5019325;28;20026;-74
2023/03/10 07:11:00;;;;;;;0.38;0.38;;;9.80;90.20;;;;;;5016440;28;20030;-75
2023/03/10 07:13:26;;;;;;;;;;;9.90;90.00;;;;;;5017045;28;20082;-74
2023/03/10 07:15:51;;;;;;;1.13;0.35;;;9.90;89.50;;;;;;4998777;28;19991;-75
2023/03/10 07:18:20;;;;;;;0.88;0.20;;;10.00;89.50;;;;;;5000746;28;20086;-74
2023/03/10 07:20:51;;;;;;;0.57;0.35;;;10.10;89.50;;;;;;5018342;28;20394;-74
2023/03/10 07:23:17;;;;;;;0.40;0.40;;;10.10;89.10;;;;;;5016881;28;20018;-74
2023/03/10 07:25:43;;;;;;;0.20;0.10;;;10.10;88.90;;;;;;5016117;28;20065;-74
2023/03/10 07:28:08;;;;;;;0.65;0.30;;;10.20;88.70;;;;;;5016072;28;20034;-75
2023/03/10 07:30:35;;;;;;;0.75;0.40;;;10.30;88.40;;;;;;5016302;28;20030;-73
2023/03/10 07:33:04;;;;;;;0.75;0.20;;;10.50;88.00;;;;;;5016041;28;20029;-74
2023/03/10 07:35:29;;;;;;;0.57;0.57;;;10.60;87.40;;;;;;5022293;28;20025;-74
2023/03/10 07:37:55;;;;;;;1.50;0.60;;;10.60;86.60;;;;;;5013026;28;20109;-74
2023/03/10 07:40:23;;;;;;;0.45;0.40;;;10.60;86.40;;;;;;5024311;28;20096;-75
2023/03/10 07:42:55;;;;;;;0.63;0.40;;;10.70;86.20;;;;;;5027296;28;20049;-74
2023/03/10 07:45:22;;;;;;;1.50;0.40;;;10.80;85.90;;;;;;5018208;28;20110;-74
2023/03/10 07:47:50;;;;;;;0.43;0.40;;;10.80;85.40;;;;;;5024269;28;20030;-74
2023/03/10 07:50:16;;;;;;;0.70;0.47;;;10.90;85.00;;;;;;5016294;28;20033;-75
2023/03/10 07:52:45;;;;;;;1.48;0.40;;;11.00;84.50;;;;;;5016258;28;20027;-74
2023/03/10 07:55:11;;;;;;;0.40;0.40;;;11.00;84.30;;;;;;5015718;28;20072;-73
2023/03/10 07:57:36;;;;;;;0.90;0.47;;;10.90;83.80;;;;;;5026206;28;20100;-74
2023/03/10 08:00:04;;;;;;;0.60;0.35;;;11.00;83.90;;;;;;5021866;28;20045;-74
2023/03/10 08:02:30;;;;;;;0.52;0.50;;;10.90;83.70;;;;;;4998120;28;20018;-74
2023/03/10 08:04:55;;;;;;;0.45;0.40;;;10.90;83.60;;;;;;5018429;28;20036;-73
2023/03/10 08:07:21;;;;;;;0.57;0.35;;;11.00;83.60;;;;;;5021440;28;20058;-74
2023/03/10 08:09:51;;;;;;;0.20;0.20;;;11.10;83.30;;;;;;5015561;28;20021;-74
2023/03/10 08:12:17;;;;;;;0.30;0.28;;;11.30;82.90;;;;;;5025672;28;20022;-75
2023/03/10 08:14:43;;;;;;;0.75;0.30;;;11.50;82.00;;;;;;5031357;28;20621;-74
2023/03/10 08:17:09;;;;;;;1.02;0.30;;;11.50;81.40;;;;;;5015366;28;20018;-74
2023/03/10 08:19:36;;;;;;;1.30;0.40;;;11.60;81.00;;;;;;5024675;28;20026;-74
2023/03/10 08:22:02;;;;;;;0.38;0.30;;;11.70;80.60;;;;;;5035947;28;20029;-75
2023/03/10 08:24:28;;;;;;;0.30;0.30;;;11.90;79.90;;;;;;5018926;28;20034;-75
2023/03/10 08:26:54;;;;;;;1.17;0.40;;;12.00;79.10;;;;;;5018378;28;20029;-76
2023/03/10 08:29:20;;;;;;;0.20;0.20;;;12.10;78.40;;;;;;5019402;28;20025;-76
2023/03/10 08:31:45;;;;;;;0.47;0.38;;;12.20;78.10;;;;;;4997541;28;20030;-75
2023/03/10 08:34:12;;;;;;;0.63;0.38;;;12.20;77.70;;;;;;5016133;28;20026;-75
2023/03/10 08:36:39;;;;;;;0.63;0.20;;;12.30;77.30;;;;;;5023805;28;20025;-76
2023/03/10 08:39:07;;;;;;;0.20;0.20;;;12.40;76.70;;;;;;5034877;28;20052;-75
2023/03/10 08:41:40;;;;;;;0.17;0.17;;;12.50;76.20;;;;;;5036390;28;20026;-76
2023/03/10 08:44:06;;;;;;;0.30;0.30;;;12.60;75.70;;;;;;5036946;28;20045;-75
2023/03/10 08:46:36;;;;;;;0.35;0.20;;;12.70;75.10;;;;;;5037065;28;20084;-76
2023/03/10 08:49:02;;;;;;;0.20;0.20;;;12.70;74.90;;;;;;5034836;28;20021;-76
2023/03/10 08:51:28;;;;;;;0.20;0.20;;;12.70;74.90;;;;;;5035210;28;20036;-76
2023/03/10 08:53:54;;;;;;;0.30;0.22;;;12.80;74.80;;;;;;5036919;28;20104;-75
2023/03/10 08:56:21;;;;;;;0.30;0.30;;;12.90;74.20;;;;;;5037153;28;20018;-74
2023/03/10 08:58:47;;;;;;;0.85;0.43;;;13.00;73.80;;;;;;5037117;28;20478;-75
2023/03/10 09:01:14;;;;;;;0.75;0.28;;;13.20;73.40;;;;;;5034914;28;20037;-75
2023/03/10 09:03:42;;;;;;;0.32;0.32;;;13.30;72.90;;;;;;5025933;28;20021;-76
2023/03/10 09:06:08;;;;;;;0.75;0.40;;;13.40;72.40;;;;;;5014312;28;20017;-75
2023/03/10 09:08:34;;;;;;;0.35;0.30;;;13.60;71.80;;;;;;5021130;28;20497;-74
2023/03/10 09:10:59;;;;;;;0.30;0.30;;;13.80;71.50;;;;;;5027462;28;20034;-77
2023/03/10 09:13:26;;;;;;;0.30;0.28;;;14.20;70.90;;;;;;5027518;28;20021;-76
2023/03/10 09:15:54;;;;;;;0.30;0.30;;;14.50;69.80;;;;;;5019185;28;20022;-75
2023/03/10 09:18:20;;;;;;;0.40;0.25;;;14.80;68.60;;;;;;5019375;28;20022;-76
2023/03/10 09:20:46;;;;;;;0.20;0.20;;;15.10;68.00;;;;;;5016138;28;20502;-75
2023/03/10 09:23:13;;;;;;;1.42;0.80;;;15.20;66.10;;;;;;5017277;28;20057;-76
2023/03/10 09:25:39;;;;;;;0.40;0.40;;;15.20;65.40;;;;;;5014189;28;20030;-75
2023/03/10 09:28:06;;;;;;;1.00;0.32;;;15.10;65.30;;;;;;5015398;28;20045;-75
2023/03/10 09:30:36;;;;;;;1.63;0.47;;;15.00;64.90;;;;;;5015371;28;20052;-75
2023/03/10 09:33:02;;;;;;;0.75;0.60;;;14.90;64.80;;;;;;5014943;28;20379;-75
2023/03/10 09:35:28;;;;;;;2.03;0.50;;;15.00;64.80;;;;;;5021174;28;20078;-76
2023/03/10 09:37:54;;;;;;;0.90;0.40;;;15.20;64.40;;;;;;5023582;28;20064;-76
2023/03/10 09:40:20;;;;;;;0.50;0.30;;;15.50;63.70;;;;;;5016056;28;20064;-76
2023/03/10 09:43:06;;;;;;;0.55;0.40;;;15.80;62.40;;;;;;5014599;28;20041;-75
2023/03/10 09:45:41;;;;;;;0.77;0.40;;;16.00;61.40;;;;;;5014484;28;20444;-77
2023/03/10 09:48:43;;;;;;;0.75;0.63;;;15.90;61.30;;;;;;5015150;28;20451;-77
2023/03/10 09:51:20;;;;;;;1.13;0.70;;;15.80;59.80;;;;;;5014688;28;20040;-76
2023/03/10 09:53:52;;;;;;;2.05;0.82;;;15.60;60.00;;;;;;5016069;28;20029;-77
2023/03/10 09:56:23;;;;;;;1.30;0.75;;;15.40;59.20;;;;;;5016774;28;20476;-77
2023/03/10 09:59:10;;;;;;;1.58;0.70;;;15.20;58.90;;;;;;5016115;28;20052;-76
2023/03/10 10:01:36;;;;;;;4.90;0.80;;;14.90;58.80;;;;;;4998135;28;20104;-77
2023/03/10 10:04:35;;;;;;;0.75;0.60;;;14.80;58.40;;;;;;5014187;28;20049;-77
2023/03/10 10:07:10;;;;;;;0.80;0.40;;;14.80;58.60;;;;;;5034163;28;20032;-76
2023/03/10 10:10:04;;;;;;;2.13;0.90;;;14.80;58.60;;;;;;5020679;28;20108;-76
2023/03/10 10:12:31;;;;;;;1.38;0.85;;;14.70;58.00;;;;;;5014983;28;20125;-75
2023/03/10 10:15:23;;;;;;;3.03;1.10;;;14.40;58.50;;;;;;5016098;28;20034;-75
2023/03/10 10:18:11;;;;;;;3.92;0.80;;;14.10;59.30;;;;;;4986296;28;20033;-76
2023/03/10 10:20:40;;;;;;;0.65;0.55;;;13.80;62.60;;;;;;5003461;28;20037;-76
2023/03/10 10:23:17;;;;;;;3.00;0.50;;;13.50;67.40;;;;;;5025616;28;20026;-76
2023/03/10 10:25:42;;;;;;;2.00;0.70;;;13.10;71.20;;;;;;5015486;28;20026;-76
2023/03/10 10:28:19;;;;;;;0.70;0.40;;;12.80;73.60;;;;;;5014196;28;20037;-76
2023/03/10 10:30:44;;;;;;;0.50;0.30;;;12.40;75.20;;;;;;5015057;28;20030;-76
2023/03/10 10:33:12;;;;;;;3.92;0.40;;;12.20;76.30;;;;;;5034698;28;20356;-76
2023/03/10 10:35:41;;;;;;;0.45;0.35;;;12.00;76.20;;;;;;5028326;28;20029;-76
2023/03/10 10:38:10;;;;;;;0.63;0.20;;;11.90;75.80;;;;;;5024838;28;20045;-76
2023/03/10 10:40:48;;;;;;;0.32;0.10;;;11.70;74.70;;;;;;5018561;28;20115;-76
2023/03/10 10:43:18;;;;;;;1.95;0.40;;;11.40;75.80;;;;;;5018674;28;20386;-76
2023/03/10 10:45:53;;;;;;;0.20;0.13;;;11.20;76.00;;;;;;5019367;28;20030;-76
2023/03/10 10:48:35;;;;;;;0.10;0.10;;;10.80;77.70;;;;;;5019077;28;20073;-76
2023/03/10 10:51:01;;;;;;;1.35;0.17;;;10.50;80.00;;;;;;5017047;28;20121;-76
2023/03/10 10:53:33;;;;;;;1.33;0.30;;;10.10;81.80;;;;;;5017686;28;20053;-76
2023/03/10 10:56:19;;;;;;;0.75;0.20;;;9.90;83.70;;;;;;5020138;28;20100;-76
2023/03/10 10:59:02;;;;;;;0.80;0.25;;;9.80;84.80;;;;;;5017592;28;20109;-76
2023/03/10 11:02:01;;;;;;;0.10;0.10;;;9.80;85.00;;;;;;5000050;28;20033;-75
2023/03/10 11:04:39;;;;;;;0.57;0.35;;;9.80;84.80;;;;;;5018658;28;20048;-76
2023/03/10 11:07:10;;;;;;;0.73;0.52;;;9.90;85.10;;;;;;5026386;28;20029;-76
2023/03/10 11:09:37;;;;;;;0.73;0.40;;;10.10;85.00;;;;;;5018283;28;20058;-77
2023/03/10 11:12:21;;;;;;;1.20;0.30;;;10.20;84.80;;;;;;5019645;28;20084;-75
2023/03/10 11:15:02;;;;;;;0.50;0.40;;;10.20;84.50;;;;;;4999964;28;20585;-76
2023/03/10 11:17:56;;;;;;;0.30;0.30;;;10.30;84.00;;;;;;5020874;28;20033;-76
2023/03/10 11:20:24;;;;;;;0.35;0.25;;;10.40;83.40;;;;;;5018064;28;20026;-76
2023/03/10 11:23:24;;;;;;;0.70;0.32;;;10.60;83.10;;;;;;5043738;23;20487;-79
2023/03/10 11:26:22;;;;;;;0.85;0.30;;;10.80;82.60;;;;;;5024958;28;20045;-79
2023/03/10 11:29:11;;;;;;;0.40;0.30;;;10.90;79.60;;;;;;5033619;28;20056;-77
2023/03/10 11:31:56;;;;;;;0.65;0.40;;;11.00;79.20;;;;;;5021665;28;20034;-79
2023/03/10 11:34:33;;;;;;;1.55;0.50;;;11.10;78.90;;;;;;5024192;28;20033;-78
2023/03/10 11:37:20;;;;;;;0.90;0.43;;;11.40;78.70;;;;;;5016672;28;20188;-77
2023/03/10 11:40:23;;;;;;;1.13;0.40;;;11.90;77.00;;;;;;4985046;28;20510;-78
2023/03/10 11:43:20;;;;;;;1.23;0.40;;;12.40;74.70;;;;;;4982692;28;20325;-79
2023/03/10 11:45:51;;;;;;;0.50;0.20;;;12.70;72.90;;;;;;5020107;28;20101;-79
2023/03/10 11:48:53;;;;;;;2.05;0.38;;;12.90;72.20;;;;;;5018580;28;20471;-77
2023/03/10 11:51:52;;;;;;;0.50;0.35;;;13.10;71.30;;;;;;5022390;28;20022;-79
2023/03/10 11:54:35;;;;;;;0.95;0.40;;;13.30;70.60;;;;;;5018345;28;20042;-79
2023/03/10 11:57:19;;;;;;;0.40;0.35;;;13.50;69.50;;;;;;5021850;28;20045;-78
2023/03/10 12:00:01;;;;;;;4.15;0.52;;;13.70;68.10;;;;;;5018286;28;20136;-79
2023/03/10 12:02:41;;;;;;;1.08;0.32;;;13.80;66.50;;;;;;5019802;28;20502;-80
2023/03/10 12:05:15;;;;;;;1.15;0.50;;;14.00;66.40;;;;;;5009072;28;20030;-79
2023/03/10 12:07:45;;;;;;;0.80;0.43;;;14.40;64.70;;;;;;5009407;28;20033;-80
2023/03/10 12:10:13;;;;;;;0.93;0.63;;;14.50;62.40;;;;;;5003960;28;20459;-78
2023/03/10 12:12:41;;;;;;;1.42;0.40;;;14.40;61.60;;;;;;4998544;28;20077;-78
2023/03/10 12:15:23;;;;;;;1.63;0.55;;;14.10;61.90;;;;;;4996066;28;20027;-77
2023/03/10 12:17:50;;;;;;;0.43;0.40;;;13.80;62.40;;;;;;4997992;28;20022;-77
2023/03/10 12:20:16;;;;;;;1.30;0.40;;;13.70;62.00;;;;;;4998512;28;20038;-77
2023/03/10 12:22:49;;;;;;;1.23;0.68;;;13.50;62.30;;;;;;4997331;28;20038;-76
2023/03/10 12:25:32;;;;;;;0.65;0.40;;;13.30;63.20;;;;;;5010054;28;20042;-77
2023/03/10 12:28:16;;;;;;;0.65;0.40;;;13.20;63.90;;;;;;5003751;28;20033;-78
2023/03/10 12:30:50;;;;;;;0.22;0.20;;;13.20;64.30;;;;;;5009387;28;20110;-79
2023/03/10 12:36:31;;;;;;;1.20;0.43;;;13.40;62.80;;;;;;5020163;28;20045;-75
2023/03/10 12:39:38;;;;;;;1.73;1.02;;;13.50;62.50;;;;;;5015353;28;20023;-76
2023/03/10 12:42:25;;;;;;;2.38;0.30;;;13.80;61.40;;;;;;4994683;28;20046;-75
2023/03/10 12:45:16;;;;;;;0.40;0.30;;;14.10;59.20;;;;;;4992308;28;20038;-77
2023/03/10 12:48:03;;;;;;;1.58;0.50;;;14.10;59.40;;;;;;5008764;28;20022;-76
2023/03/10 12:50:45;;;;;;;3.72;0.52;;;14.10;59.30;;;;;;5010372;28;20062;-78
2023/03/10 12:53:20;;;;;;;0.75;0.20;;;14.30;59.30;;;;;;5009188;28;20046;-77
2023/03/10 12:56:17;;;;;;;0.20;0.20;;;14.40;58.70;;;;;;5002824;28;20018;-78
2023/03/10 12:59:03;;;;;;;1.20;0.40;;;14.50;57.90;;;;;;5008102;28;20022;-78
2023/03/10 13:01:36;;;;;;;0.35;0.30;;;14.60;58.10;;;;;;5009967;28;20030;-77
2023/03/10 13:04:05;;;;;;;0.32;0.30;;;14.70;57.30;;;;;;5005658;28;20038;-79
2023/03/10 13:06:39;;;;;;;0.73;0.30;;;14.70;57.30;;;;;;5016304;28;20040;-78
2023/03/10 13:09:28;;;;;;;0.55;0.40;;;14.70;57.80;;;;;;5011208;28;20112;-79
2023/03/10 13:11:56;;;;;;;0.93;0.22;;;14.80;57.70;;;;;;5015905;28;20030;-76